createdAt,value
2023-04-28T00:00:39.522Z,101196.31
2023-04-28T00:03:07.549Z,101200.53
2023-04-28T00:05:35.696Z,101195.22
2023-04-28T00:08:04.441Z,101196.16
2023-04-28T00:10:33.613Z,101204.94
2023-04-28T00:13:02.160Z,101202.41
2023-04-28T00:15:30.039Z,101197.28
2023-04-28T00:17:59.325Z,101210.13
2023-04-28T00:20:27.360Z,101209.44
2023-04-28T00:22:55.198Z,101206.94
2023-04-28T00:25:23.048Z,101217.34
2023-04-28T00:27:51.002Z,101210.44
2023-04-28T00:30:19.355Z,101215.63
2023-04-28T00:32:47.332Z,101212.25
2023-04-28T00:35:16.630Z,101216.66
2023-04-28T00:37:44.708Z,101215.09
2023-04-28T00:40:13.326Z,101224.53
2023-04-28T00:42:41.271Z,101221.91
2023-04-28T00:45:10.529Z,101230.41
2023-04-28T00:47:38.942Z,101233.81
2023-04-28T00:50:07.826Z,101233.69
2023-04-28T00:52:37.851Z,101240.94
2023-04-28T00:55:07.085Z,101246.06
2023-04-28T00:57:35.429Z,101240.03
2023-04-28T01:00:03.607Z,101242.38
2023-04-28T01:02:33.080Z,101245.78
2023-04-28T01:05:02.599Z,101245.66
2023-04-28T01:07:31.140Z,101245.59
2023-04-28T01:10:00.428Z,101247.19
2023-04-28T01:12:28.300Z,101247.97
2023-04-28T01:14:56.269Z,101250.50
2023-04-28T01:17:24.253Z,101236.59
2023-04-28T01:19:53.027Z,101237.44
2023-04-28T01:22:21.025Z,101245.22
2023-04-28T01:24:50.366Z,101246.97
2023-04-28T01:27:18.282Z,101253.91
2023-04-28T01:29:46.211Z,101254.84
2023-04-28T01:32:14.050Z,101251.47
2023-04-28T01:34:41.914Z,101244.75
2023-04-28T01:37:09.824Z,101249.22
2023-04-28T01:39:37.717Z,101253.59
2023-04-28T01:42:07.244Z,101259.69
2023-04-28T01:44:35.286Z,101257.38
2023-04-28T01:47:03.288Z,101263.69
2023-04-28T01:49:31.589Z,101261.31
2023-04-28T01:51:59.719Z,101269.22
2023-04-28T01:54:28.050Z,101269.22
2023-04-28T01:56:55.965Z,101271.31
2023-04-28T01:59:25.340Z,101269.63
2023-04-28T02:01:53.302Z,101272.38
2023-04-28T02:04:21.501Z,101275.84
2023-04-28T02:06:49.432Z,101276.00
2023-04-28T02:09:17.301Z,101271.78
2023-04-28T02:11:45.392Z,101278.81
2023-04-28T02:14:13.428Z,101284.16
2023-04-28T02:16:45.474Z,101275.53
2023-04-28T02:19:13.355Z,101281.81
2023-04-28T02:21:43.140Z,101281.09
2023-04-28T02:24:11.029Z,101290.63
2023-04-28T02:26:39.009Z,101280.38
2023-04-28T02:29:06.997Z,101283.81
2023-04-28T02:31:35.046Z,101283.16
2023-04-28T02:34:04.567Z,101279.81
2023-04-28T02:36:32.520Z,101281.59
2023-04-28T02:39:00.503Z,101289.28
2023-04-28T02:41:29.979Z,101287.56
2023-04-28T02:43:57.973Z,101294.66
2023-04-28T02:46:25.855Z,101295.56
2023-04-28T02:48:53.742Z,101301.63
2023-04-28T02:51:23.096Z,101296.47
2023-04-28T02:53:51.044Z,101305.94
2023-04-28T02:56:18.958Z,101294.66
2023-04-28T02:58:46.860Z,101303.25
2023-04-28T03:01:14.757Z,101308.53
2023-04-28T03:03:42.818Z,101308.47
2023-04-28T03:06:10.852Z,101305.03
2023-04-28T03:08:40.113Z,101303.31
2023-04-28T03:11:08.068Z,101304.22
2023-04-28T03:13:36.654Z,101316.28
2023-04-28T03:16:05.013Z,101308.47
2023-04-28T03:18:32.897Z,101313.56
2023-04-28T03:21:00.753Z,101309.09
2023-04-28T03:23:28.620Z,101314.19
2023-04-28T03:25:57.929Z,101310.50
2023-04-28T03:28:28.441Z,101317.47
2023-04-28T03:30:56.671Z,101314.13
2023-04-28T03:33:24.614Z,101323.75
2023-04-28T03:35:53.605Z,101322.75
2023-04-28T03:38:22.520Z,101323.53
2023-04-28T03:40:50.731Z,101318.22
2023-04-28T03:43:20.109Z,101326.72
2023-04-28T03:45:49.593Z,101330.16
2023-04-28T03:48:17.587Z,101333.53
2023-04-28T03:50:45.617Z,101335.03
2023-04-28T03:53:13.539Z,101334.19
2023-04-28T03:55:41.375Z,101336.78
2023-04-28T03:58:09.357Z,101343.53
2023-04-28T04:00:38.649Z,101337.44
2023-04-28T04:03:06.681Z,101341.50
2023-04-28T04:05:34.815Z,101342.31
2023-04-28T04:08:03.090Z,101341.34
2023-04-28T04:10:32.445Z,101343.13
2023-04-28T04:13:00.260Z,101349.00
2023-04-28T04:15:28.073Z,101359.38
2023-04-28T04:17:57.375Z,101349.78
2023-04-28T04:20:25.315Z,101350.50
2023-04-28T04:22:53.119Z,101352.19
2023-04-28T04:25:23.165Z,101354.66
2023-04-28T04:27:51.379Z,101360.66
2023-04-28T04:30:19.356Z,101364.09
2023-04-28T04:32:47.420Z,101360.69
2023-04-28T04:35:17.460Z,101363.13
2023-04-28T04:37:45.795Z,101362.94
2023-04-28T04:40:14.056Z,101371.50
2023-04-28T04:42:41.966Z,101370.44
2023-04-28T04:45:10.853Z,101372.06
2023-04-28T04:47:39.277Z,101369.44
2023-04-28T04:50:08.373Z,101369.22
2023-04-28T04:52:37.692Z,101369.16
2023-04-28T04:55:06.557Z,101378.44
2023-04-28T04:57:34.418Z,101381.81
2023-04-28T05:00:02.430Z,101380.72
2023-04-28T05:02:30.522Z,101384.94
2023-04-28T05:05:08.128Z,101388.94
2023-04-28T05:07:47.901Z,101382.69
2023-04-28T05:10:15.726Z,101387.81
2023-04-28T05:12:46.817Z,101391.16
2023-04-28T05:15:16.278Z,101395.25
2023-04-28T05:17:44.233Z,101389.16
2023-04-28T05:20:12.934Z,101385.38
2023-04-28T05:22:41.474Z,101390.50
2023-04-28T05:25:11.333Z,101391.53
2023-04-28T05:27:40.888Z,101397.47
2023-04-28T05:30:10.418Z,101398.56
2023-04-28T05:32:39.463Z,101408.81
2023-04-28T05:35:08.026Z,101401.84
2023-04-28T05:37:37.731Z,101403.50
2023-04-28T05:40:07.958Z,101397.03
2023-04-28T05:42:37.080Z,101405.72
2023-04-28T05:45:05.582Z,101415.34
2023-04-28T05:47:33.616Z,101411.63
2023-04-28T05:50:02.380Z,101409.44
2023-04-28T05:52:30.398Z,101418.06
2023-04-28T05:54:58.283Z,101410.94
2023-04-28T05:57:26.457Z,101410.78
2023-04-28T05:59:55.832Z,101416.88
2023-04-28T06:02:24.547Z,101416.03
2023-04-28T06:04:53.675Z,101418.69
2023-04-28T06:07:21.815Z,101421.25
2023-04-28T06:09:49.897Z,101423.03
2023-04-28T06:12:17.910Z,101430.75
2023-04-28T06:14:45.789Z,101427.88
2023-04-28T06:17:15.066Z,101437.28
2023-04-28T06:19:42.921Z,101440.63
2023-04-28T06:22:10.837Z,101442.19
2023-04-28T06:24:38.714Z,101440.06
2023-04-28T06:27:07.365Z,101440.25
2023-04-28T06:29:35.274Z,101440.41
2023-04-28T06:32:03.188Z,101449.00
2023-04-28T06:34:32.899Z,101453.44
2023-04-28T06:37:00.821Z,101451.41
2023-04-28T06:39:28.989Z,101455.47
2023-04-28T06:41:57.717Z,101448.66
2023-04-28T06:44:25.604Z,101450.75
2023-04-28T06:46:56.336Z,101455.75
2023-04-28T06:49:27.402Z,101459.03
2023-04-28T06:51:56.701Z,101460.34
2023-04-28T06:54:26.801Z,101458.13
2023-04-28T06:56:54.859Z,101466.63
2023-04-28T06:59:22.770Z,101467.19
2023-04-28T07:01:50.722Z,101473.63
2023-04-28T07:04:19.809Z,101473.56
2023-04-28T07:06:48.321Z,101470.97
2023-04-28T07:09:17.958Z,101482.16
2023-04-28T07:11:46.357Z,101481.47
2023-04-28T07:14:14.475Z,101482.78
2023-04-28T07:16:42.609Z,101480.06
2023-04-28T07:19:10.542Z,101480.22
2023-04-28T07:21:38.449Z,101478.53
2023-04-28T07:24:06.848Z,101487.22
2023-04-28T07:26:36.325Z,101481.84
2023-04-28T07:29:04.243Z,101482.66
2023-04-28T07:31:32.232Z,101486.13
2023-04-28T07:34:00.351Z,101481.00
2023-04-28T07:36:28.656Z,101494.94
2023-04-28T07:38:56.590Z,101487.28
2023-04-28T07:41:25.094Z,101484.38
2023-04-28T07:43:54.475Z,101495.78
2023-04-28T07:46:22.991Z,101495.53
2023-04-28T07:48:51.081Z,101506.47
2023-04-28T07:51:19.065Z,101501.75
2023-04-28T07:53:46.995Z,101497.91
2023-04-28T07:56:14.893Z,101507.06
2023-04-28T07:58:42.856Z,101495.38
2023-04-28T08:01:12.359Z,101503.91
2023-04-28T08:03:40.512Z,101512.03
2023-04-28T08:06:09.457Z,101507.06
2023-04-28T08:08:38.606Z,101502.66
2023-04-28T08:11:06.603Z,101506.09
2023-04-28T08:13:34.669Z,101518.19
2023-04-28T08:16:02.903Z,101509.50
2023-04-28T08:18:32.247Z,101515.25
2023-04-28T08:21:00.233Z,101511.50
2023-04-28T08:23:28.400Z,101522.09
2023-04-28T08:25:56.288Z,101518.38
2023-04-28T08:28:24.172Z,101523.47
2023-04-28T08:30:52.487Z,101521.91
2023-04-28T08:33:20.303Z,101524.81
2023-04-28T08:35:49.669Z,101522.75
2023-04-28T08:38:18.347Z,101523.16
2023-04-28T08:40:46.319Z,101532.31
2023-04-28T08:43:15.122Z,101530.97
2023-04-28T08:45:45.808Z,101527.13
2023-04-28T08:48:20.658Z,101536.78
2023-04-28T08:50:53.408Z,101529.78
2023-04-28T08:53:25.567Z,101530.91
2023-04-28T08:55:57.587Z,101525.09
2023-04-28T08:58:26.286Z,101521.81
2023-04-28T09:00:54.781Z,101524.63
2023-04-28T09:03:23.016Z,101522.41
2023-04-28T09:05:52.494Z,101527.69
2023-04-28T09:08:20.497Z,101525.81
2023-04-28T09:10:48.438Z,101530.94
2023-04-28T09:13:26.803Z,101518.75
2023-04-28T09:16:01.519Z,101521.97
2023-04-28T09:18:29.450Z,101524.59
2023-04-28T09:21:06.055Z,101520.16
2023-04-28T09:23:34.920Z,101514.53
2023-04-28T09:26:04.590Z,101515.88
2023-04-28T09:28:33.209Z,101515.16
2023-04-28T09:31:01.227Z,101515.66
2023-04-28T09:33:29.433Z,101520.66
2023-04-28T09:35:57.358Z,101521.72
2023-04-28T09:38:26.672Z,101522.91
2023-04-28T09:40:57.558Z,101516.81
2023-04-28T09:43:30.468Z,101507.97
2023-04-28T09:46:00.621Z,101500.81
2023-04-28T09:48:30.877Z,101502.00
2023-04-28T09:50:59.405Z,101490.81
2023-04-28T09:53:29.714Z,101499.31
2023-04-28T09:55:58.373Z,101490.59
2023-04-28T09:58:27.427Z,101497.69
2023-04-28T10:00:56.595Z,101488.09
2023-04-28T10:03:28.602Z,101479.53
2023-04-28T10:05:58.438Z,101481.22
2023-04-28T10:08:28.651Z,101480.84
2023-04-28T10:10:57.873Z,101480.47
2023-04-28T10:13:26.506Z,101487.63
2023-04-28T10:15:55.936Z,101493.50
2023-04-28T10:18:24.868Z,101488.22
2023-04-28T10:20:58.729Z,101489.44
2023-04-28T10:23:43.932Z,101493.16
2023-04-28T10:26:15.195Z,101492.84
2023-04-28T10:28:48.457Z,101489.75
2023-04-28T10:31:18.861Z,101490.34
2023-04-28T10:33:46.541Z,101493.28
2023-04-28T10:36:52.296Z,101496.72
2023-04-28T10:39:21.675Z,101501.03
2023-04-28T10:41:50.516Z,101502.09
2023-04-28T10:44:43.885Z,101520.03
2023-04-28T10:47:12.395Z,101515.47
2023-04-28T10:50:08.988Z,101508.88
2023-04-28T10:52:52.816Z,101506.97
2023-04-28T10:55:37.315Z,101504.44
2023-04-28T10:58:33.684Z,101499.38
2023-04-28T11:01:27.136Z,101511.59
2023-04-28T11:04:03.134Z,101509.88
2023-04-28T11:06:34.484Z,101514.13
2023-04-28T11:09:04.107Z,101513.91
2023-04-28T11:11:35.227Z,101514.66
2023-04-28T11:14:35.284Z,101512.66
2023-04-28T11:17:04.616Z,101515.47
2023-04-28T11:19:34.271Z,101514.75
2023-04-28T11:22:03.737Z,101514.97
2023-04-28T11:24:32.435Z,101521.34
2023-04-28T11:27:02.358Z,101520.25
2023-04-28T11:29:35.318Z,101520.53
2023-04-28T11:32:04.016Z,101529.66
2023-04-28T11:34:32.742Z,101529.88
2023-04-28T11:37:00.779Z,101533.03
2023-04-28T11:39:30.654Z,101539.28
2023-04-28T11:41:59.616Z,101546.03
2023-04-28T11:44:30.697Z,101540.28
2023-04-28T11:47:00.644Z,101539.72
2023-04-28T11:49:30.388Z,101543.56
2023-04-28T11:52:00.376Z,101545.56
2023-04-28T11:54:29.813Z,101548.75
2023-04-28T11:56:59.103Z,101547.88
2023-04-28T11:59:30.841Z,101542.94
2023-04-28T12:02:02.904Z,101542.72
2023-04-28T12:04:35.690Z,101544.03
2023-04-28T12:07:07.112Z,101541.06
2023-04-28T12:09:36.394Z,101543.13
2023-04-28T12:12:05.962Z,101538.63
2023-04-28T12:14:56.362Z,101539.84
2023-04-28T12:17:24.665Z,101551.22
2023-04-28T12:19:52.798Z,101547.97
2023-04-28T12:22:20.968Z,101567.38
2023-04-28T12:25:04.454Z,101594.59
2023-04-28T12:27:32.333Z,101608.31
2023-04-28T12:30:01.679Z,101619.63
2023-04-28T12:32:40.467Z,101621.66
2023-04-28T12:35:09.469Z,101629.75
2023-04-28T12:37:38.482Z,101629.56
2023-04-28T12:40:07.457Z,101633.09
2023-04-28T12:42:35.524Z,101629.56
2023-04-28T12:45:05.898Z,101628.69
2023-04-28T12:47:34.462Z,101633.72
2023-04-28T12:50:02.403Z,101615.97
2023-04-28T12:52:33.736Z,101614.59
2023-04-28T12:55:01.741Z,101610.53
2023-04-28T12:57:30.534Z,101612.22
2023-04-28T12:59:58.535Z,101610.00
2023-04-28T13:02:28.385Z,101606.19
2023-04-28T13:04:56.555Z,101603.09
2023-04-28T13:07:24.628Z,101603.63
2023-04-28T13:09:52.568Z,101591.84
2023-04-28T13:12:20.564Z,101590.50
2023-04-28T13:14:48.356Z,101601.59
2023-04-28T13:17:16.368Z,101594.31
2023-04-28T13:19:45.898Z,101598.09
2023-04-28T13:22:14.786Z,101590.44
2023-04-28T13:24:43.159Z,101593.97
2023-04-28T13:27:11.201Z,101585.28
2023-04-28T13:29:39.205Z,101597.38
2023-04-28T13:32:08.293Z,101599.09
2023-04-28T13:34:38.150Z,101594.31
2023-04-28T13:37:07.488Z,101604.38
2023-04-28T13:39:35.515Z,101603.22
2023-04-28T13:42:03.935Z,101604.75
2023-04-28T13:44:32.198Z,101601.94
2023-04-28T13:47:00.438Z,101597.69
2023-04-28T13:49:28.928Z,101597.63
2023-04-28T13:51:56.897Z,101605.06
2023-04-28T13:54:26.362Z,101590.91
2023-04-28T13:56:54.205Z,101592.66
2023-04-28T13:59:22.161Z,101600.84
2023-04-28T14:01:50.238Z,101599.28
2023-04-28T14:04:18.326Z,101600.59
2023-04-28T14:06:46.675Z,101599.44
2023-04-28T14:09:14.602Z,101601.50
2023-04-28T14:11:43.960Z,101602.75
2023-04-28T14:14:12.123Z,101605.59
2023-04-28T14:16:40.048Z,101607.06
2023-04-28T14:19:08.775Z,101602.91
2023-04-28T14:21:36.980Z,101601.41
2023-04-28T14:24:07.827Z,101601.47
2023-04-28T14:26:37.820Z,101601.97
2023-04-28T14:29:07.278Z,101606.06
2023-04-28T14:31:35.312Z,101599.44
2023-04-28T14:34:03.970Z,101602.56
2023-04-28T14:36:33.034Z,101604.53
2023-04-28T14:39:01.426Z,101601.09
2023-04-28T14:41:29.463Z,101602.00
2023-04-28T14:43:57.835Z,101602.94
2023-04-28T14:46:27.673Z,101603.13
2023-04-28T14:48:55.705Z,101600.28
2023-04-28T14:51:23.966Z,101605.91
2023-04-28T14:53:51.882Z,101610.94
2023-04-28T14:56:20.502Z,101618.50
2023-04-28T14:58:48.668Z,101617.69
2023-04-28T15:01:17.389Z,101603.13
2023-04-28T15:03:47.387Z,101618.19
2023-04-28T15:06:15.411Z,101632.34
2023-04-28T15:08:43.356Z,101646.09
2023-04-28T15:11:11.818Z,101660.94
2023-04-28T15:13:41.046Z,101658.84
2023-04-28T15:16:10.986Z,101649.44
2023-04-28T15:18:39.594Z,101659.31
2023-04-28T15:21:09.521Z,101649.25
2023-04-28T15:23:37.476Z,101640.81
2023-04-28T15:26:06.601Z,101641.28
2023-04-28T15:28:34.624Z,101651.03
2023-04-28T15:31:02.441Z,101644.75
2023-04-28T15:33:30.252Z,101642.13
2023-04-28T15:35:58.465Z,101642.00
2023-04-28T15:38:31.288Z,101649.03
2023-04-28T15:40:59.256Z,101650.09
2023-04-28T15:43:27.299Z,101646.22
2023-04-28T15:45:55.309Z,101651.63
2023-04-28T15:48:23.556Z,101656.78
2023-04-28T15:50:51.597Z,101646.34
2023-04-28T15:53:21.698Z,101651.72
2023-04-28T15:55:50.954Z,101651.03
2023-04-28T15:58:18.777Z,101640.59
2023-04-28T16:00:47.051Z,101641.63
2023-04-28T16:03:15.231Z,101651.22
2023-04-28T16:05:43.241Z,101647.78
2023-04-28T16:08:11.635Z,101651.91
2023-04-28T16:10:41.293Z,101647.84
2023-04-28T16:13:12.342Z,101647.84
2023-04-28T16:15:41.778Z,101642.50
2023-04-28T16:18:09.942Z,101646.69
2023-04-28T16:20:38.016Z,101648.56
2023-04-28T16:23:06.975Z,101639.94
2023-04-28T16:25:35.427Z,101646.69
2023-04-28T16:28:03.542Z,101644.16
2023-04-28T16:30:33.102Z,101642.22
2023-04-28T16:33:01.436Z,101628.47
2023-04-28T16:35:29.402Z,101627.78
2023-04-28T16:37:57.380Z,101632.06
2023-04-28T16:40:25.312Z,101635.72
2023-04-28T16:42:53.359Z,101635.47
2023-04-28T16:45:21.232Z,101630.31
2023-04-28T16:47:50.685Z,101633.69
2023-04-28T16:50:18.655Z,101631.78
2023-04-28T16:52:46.600Z,101633.69
2023-04-28T16:55:14.431Z,101634.53
2023-04-28T16:57:42.956Z,101631.00
2023-04-28T17:00:12.096Z,101634.97
2023-04-28T17:02:40.198Z,101636.13
2023-04-28T17:05:10.899Z,101631.94
2023-04-28T17:07:38.928Z,101630.31
2023-04-28T17:10:08.314Z,101638.41
2023-04-28T17:12:36.371Z,101640.19
2023-04-28T17:15:04.458Z,101642.44
2023-04-28T17:17:33.585Z,101635.03
2023-04-28T17:20:02.381Z,101635.31
2023-04-28T17:22:32.968Z,101638.88
2023-04-28T17:25:00.954Z,101644.97
2023-04-28T17:27:28.883Z,101642.34
2023-04-28T17:29:56.804Z,101639.53
2023-04-28T17:32:25.039Z,101640.53
2023-04-28T17:34:53.098Z,101650.94
2023-04-28T17:37:21.107Z,101647.56
2023-04-28T17:39:52.131Z,101642.50
2023-04-28T17:42:20.220Z,101647.84
2023-04-28T17:44:48.139Z,101647.06
2023-04-28T17:47:17.430Z,101641.91
2023-04-28T17:49:45.868Z,101639.47
2023-04-28T17:52:15.511Z,101635.28
2023-04-28T17:54:43.477Z,101630.09
2023-04-28T17:57:13.172Z,101634.69
2023-04-28T17:59:42.600Z,101644.25
2023-04-28T18:02:11.342Z,101639.31
2023-04-28T18:04:39.477Z,101632.47
2023-04-28T18:07:07.834Z,101643.22
2023-04-28T18:09:35.828Z,101637.63
2023-04-28T18:12:04.519Z,101633.69
2023-04-28T18:14:33.815Z,101635.69
2023-04-28T18:17:02.027Z,101636.88
2023-04-28T18:19:31.071Z,101629.41
2023-04-28T18:21:59.028Z,101641.88
2023-04-28T18:24:26.865Z,101635.44
2023-04-28T18:26:54.903Z,101646.28
2023-04-28T18:29:22.865Z,101644.84
2023-04-28T18:31:52.294Z,101644.19
2023-04-28T18:34:20.265Z,101637.50
2023-04-28T18:36:48.218Z,101640.41
2023-04-28T18:39:17.222Z,101643.06
2023-04-28T18:41:45.392Z,101641.56
2023-04-28T18:44:14.011Z,101643.66
2023-04-28T18:46:41.853Z,101636.34
2023-04-28T18:49:11.423Z,101634.91
2023-04-28T18:51:39.699Z,101646.38
2023-04-28T18:54:07.583Z,101639.34
2023-04-28T18:56:36.073Z,101645.34
2023-04-28T18:59:04.810Z,101642.75
2023-04-28T19:01:32.862Z,101644.63
2023-04-28T19:04:01.016Z,101648.16
2023-04-28T19:06:30.780Z,101644.16
2023-04-28T19:08:58.777Z,101641.06
2023-04-28T19:11:27.074Z,101637.06
2023-04-28T19:13:55.748Z,101637.22
2023-04-28T19:16:23.706Z,101643.63
2023-04-28T19:18:51.775Z,101648.22
2023-04-28T19:21:20.141Z,101646.78
2023-04-28T19:23:49.844Z,101637.59
2023-04-28T19:26:18.385Z,101645.75
2023-04-28T19:28:46.425Z,101652.81
2023-04-28T19:31:14.913Z,101648.72
2023-04-28T19:33:43.398Z,101646.38
2023-04-28T19:36:11.309Z,101648.31
2023-04-28T19:38:40.363Z,101646.78
2023-04-28T19:41:10.142Z,101650.53
2023-04-28T19:43:38.229Z,101652.44
2023-04-28T19:46:06.354Z,101648.38
2023-04-28T19:48:34.643Z,101648.53
2023-04-28T19:51:02.679Z,101646.09
2023-04-28T19:53:35.425Z,101652.34
2023-04-28T19:56:04.090Z,101644.81
2023-04-28T19:58:33.590Z,101647.75
2023-04-28T20:01:01.878Z,101652.19
2023-04-28T20:03:30.006Z,101650.63
2023-04-28T20:05:58.019Z,101653.44
2023-04-28T20:08:27.582Z,101650.13
2023-04-28T20:10:56.048Z,101653.00
2023-04-28T20:13:24.735Z,101650.69
2023-04-28T20:15:54.965Z,101646.59
2023-04-28T20:18:22.820Z,101648.41
2023-04-28T20:20:53.625Z,101649.41
2023-04-28T20:23:21.679Z,101652.19
2023-04-28T20:25:49.860Z,101651.47
2023-04-28T20:28:17.772Z,101647.28
2023-04-28T20:30:45.898Z,101656.06
2023-04-28T20:33:16.087Z,101657.91
2023-04-28T20:35:44.366Z,101653.16
2023-04-28T20:38:12.230Z,101656.72
2023-04-28T20:40:40.896Z,101656.84
2023-04-28T20:43:08.819Z,101656.00
2023-04-28T20:45:36.743Z,101646.66
2023-04-28T20:48:04.951Z,101656.19
2023-04-28T20:50:36.255Z,101656.28
2023-04-28T20:53:04.199Z,101659.84
2023-04-28T20:55:32.078Z,101660.88
2023-04-28T20:57:59.965Z,101653.25
2023-04-28T21:00:27.866Z,101655.91
2023-04-28T21:02:55.898Z,101658.50
2023-04-28T21:05:24.110Z,101657.72
2023-04-28T21:07:53.373Z,101650.91
2023-04-28T21:10:21.324Z,101657.06
2023-04-28T21:12:49.562Z,101657.19
2023-04-28T21:15:17.811Z,101658.09
2023-04-28T21:17:45.755Z,101654.66
2023-04-28T21:20:14.646Z,101649.69
2023-04-28T21:22:42.618Z,101653.22
2023-04-28T21:25:11.958Z,101653.22
2023-04-28T21:27:40.174Z,101652.44
2023-04-28T21:30:10.283Z,101650.78
2023-04-28T21:32:38.879Z,101647.63
2023-04-28T21:35:07.944Z,101645.00
2023-04-28T21:37:36.194Z,101645.91
2023-04-28T21:40:04.988Z,101641.59
2023-04-28T21:42:34.594Z,101640.81
2023-04-28T21:45:02.563Z,101640.19
2023-04-28T21:47:30.555Z,101640.22
2023-04-28T21:49:58.552Z,101635.19
2023-04-28T21:52:26.477Z,101629.16
2023-04-28T21:54:54.832Z,101634.31
2023-04-28T21:57:22.716Z,101633.59
2023-04-28T21:59:54.668Z,101634.44
2023-04-28T22:02:22.954Z,101633.59
2023-04-28T22:04:51.582Z,101639.63
2023-04-28T22:07:19.670Z,101631.88
2023-04-28T22:09:47.643Z,101640.59
2023-04-28T22:12:15.571Z,101639.84
2023-04-28T22:14:43.494Z,101638.19
2023-04-28T22:17:12.846Z,101640.84
2023-04-28T22:19:40.818Z,101636.59
2023-04-28T22:22:09.006Z,101636.63
2023-04-28T22:24:37.105Z,101630.69
2023-04-28T22:27:05.120Z,101637.69
2023-04-28T22:29:33.049Z,101631.78
2023-04-28T22:32:02.619Z,101636.13
2023-04-28T22:34:32.110Z,101638.81
2023-04-28T22:37:00.015Z,101634.63
2023-04-28T22:39:27.940Z,101632.13
2023-04-28T22:41:55.835Z,101629.63
2023-04-28T22:44:23.746Z,101633.97
2023-04-28T22:46:51.717Z,101634.84
2023-04-28T22:49:24.529Z,101634.03
2023-04-28T22:51:53.835Z,101633.28
2023-04-28T22:54:21.765Z,101626.41
2023-04-28T22:56:51.361Z,101627.28
2023-04-28T22:59:22.208Z,101628.25
2023-04-28T23:01:50.246Z,101630.88
2023-04-28T23:04:18.873Z,101627.34
2023-04-28T23:06:46.749Z,101626.41
2023-04-28T23:09:16.190Z,101627.31
2023-04-28T23:11:44.008Z,101622.13
2023-04-28T23:14:11.859Z,101634.19
2023-04-28T23:16:39.882Z,101637.78
2023-04-28T23:19:08.750Z,101624.94
2023-04-28T23:21:36.689Z,101624.03
2023-04-28T23:24:04.887Z,101622.38
2023-04-28T23:26:34.373Z,101616.34
2023-04-28T23:29:02.226Z,101620.66
2023-04-28T23:31:30.813Z,101621.44
2023-04-28T23:33:59.583Z,101615.44
2023-04-28T23:36:28.000Z,101615.44
2023-04-28T23:38:56.513Z,101606.81
2023-04-28T23:41:24.837Z,101609.34
2023-04-28T23:43:55.252Z,101607.66
2023-04-28T23:46:23.306Z,101602.56
2023-04-28T23:48:51.216Z,101599.03
2023-04-28T23:51:19.218Z,101604.22
2023-04-28T23:53:47.115Z,101601.53
2023-04-28T23:56:15.036Z,101594.63
2023-04-28T23:58:42.979Z,101604.06
